Data for 04/20/2016

Time Sea-Level Adjusted Pressure Absolute Pressure Temperature Relative Humidity Dew Point   
(mb) (inHg) (mb) (inHg) (C) (F) (%) (C) (F)
00:05 1017 30.03 847 25.01 8.4 47 67 2.7 36.8
00:10 1017 30.03 847 25.01 8.3 47 68 2.8 37
00:15 1017 30.03 847 25.01 8.5 47.2 68 2.8 37.1
00:20 1017 30.03 847 25.01 8.3 47 69 2.9 37.3
00:25 1017 30.03 847 25.01 8.2 46.8 71 3.2 37.8
00:30 1017 30.03 847 25.01 8 46.4 69 2.7 36.8
00:35 1017 30.03 847 25.01 7.8 46.1 68 2.4 36.3
00:40 1017 30.03 847 25.01 7.7 45.9 69 2.5 36.5
00:45 1018 30.06 847 25.01 7.7 45.8 69 2.4 36.3
00:50 1018 30.06 847 25.01 7.6 45.7 70 2.5 36.4
00:55 1017 30.03 847 25.01 7.5 45.5 70 2.4 36.4
01:00 1017 30.03 847 25.01 7.4 45.3 70 2.2 36
01:05 1017 30.03 847 25.01 7.4 45.2 70 2.2 35.9
01:10 1017 30.03 847 25.01 7.2 45 70 2.2 35.9
01:15 1017 30.03 847 25.01 7.1 44.8 70 2.1 35.8
01:20 1017 30.03 847 25.01 7 44.5 71 2 35.6
01:25 1017 30.03 847 25.01 7 44.5 70 1.9 35.4
01:30 1017 30.03 847 25.01 7 44.6 70 1.9 35.4
01:35 1017 30.03 847 25.01 7.3 45.1 68 1.8 35.2
01:40 1017 30.03 847 25.01 7.3 45.2 68 1.7 35.1
01:45 1017 30.03 847 25.01 7.3 45.1 67 1.5 34.8
01:50 1017 30.03 847 25.01 7.2 44.9 66 1.3 34.3
01:55 1017 30.03 847 25.01 7.1 44.7 68 1.6 34.9
02:00 1017 30.03 847 25.01 6.9 44.4 68 1.5 34.6
02:05 1017 30.03 847 25.01 6.6 43.9 68 1.1 34
02:10 1017 30.03 847 25.01 6.4 43.6 67 0.9 33.5
02:15 1017 30.03 847 25.01 6.4 43.5 71 1.5 34.7
02:20 1017 30.03 847 25.01 6.3 43.4 67 0.6 33.1
02:25 1017 30.03 847 25.01 6.2 43.2 67 0.5 32.9
02:30 1017 30.03 847 25.01 6.4 43.5 66 0.5 32.9
02:35 1017 30.03 846 24.98 6.5 43.7 65 0.4 32.7
02:40 1017 30.03 847 25.01 6.6 43.9 66 0.7 33.2
02:45 1017 30.03 847 25.01 6.5 43.7 65 0.4 32.7
02:50 1017 30.03 847 25.01 6.4 43.5 65 0.3 32.6
02:55 1017 30.03 847 25.01 6.5 43.7 65 0.3 32.6
03:00 1017 30.03 847 25.01 6.6 43.8 65 0.4 32.7
03:05 1017 30.03 847 25.01 6.5 43.7 65 0.3 32.6
03:10 1018 30.06 847 25.01 6.3 43.4 66 0.4 32.7
03:15 1018 30.06 847 25.01 6.3 43.3 65 0.2 32.4
03:20 1018 30.06 847 25.01 6.2 43.1 67 0.5 32.8
03:25 1018 30.06 847 25.01 6.2 43.2 65 0.2 32.4
03:30 1018 30.06 847 25.01 6.2 43.2 66 0.4 32.8
03:35 1018 30.06 847 25.01 6.1 42.9 67 0.5 32.9
03:40 1018 30.06 847 25.01 6 42.8 66 0.2 32.3
03:45 1018 30.06 847 25.01 6.1 43 66 0.1 32.2
03:50 1018 30.06 847 25.01 6.3 43.4 64 -0 31.9
03:55 1018 30.06 847 25.01 6.3 43.3 64 -0 31.9
04:00 1018 30.06 847 25.01 6.2 43.1 64 -0.1 31.9
04:05 1018 30.06 847 25.01 6 42.8 64 -0.4 31.3
04:10 1018 30.06 847 25.01 6.1 43 63 -0.4 31.3
04:15 1018 30.06 847 25.01 6.3 43.3 62 -0.4 31.3
04:20 1018 30.06 847 25.01 6.3 43.4 62 -0.4 31.4
04:25 1018 30.06 847 25.01 5.8 42.5 64 -0.3 31.4
04:30 1018 30.06 847 25.01 5.4 41.8 65 -0.6 30.9
04:35 1018 30.06 847 25.01 5.5 41.8 64 -0.7 30.8
04:40 1018 30.06 847 25.01 5.4 41.7 65 -0.7 30.8
04:45 1018 30.06 847 25.01 5.4 41.7 65 -0.6 31
04:50 1018 30.06 847 25.01 5.2 41.3 67 -0.5 31.1
04:55 1018 30.06 847 25.01 5.1 41.2 66 -0.7 30.8
05:00 1018 30.06 847 25.01 5.3 41.5 66 -0.6 31
05:05 1018 30.06 847 25.01 5.3 41.5 66 -0.6 31
05:10 1018 30.06 847 25.01 5.1 41.2 67 -0.4 31.3
05:15 1018 30.06 847 25.01 4.7 40.5 69 -0.5 31.1
05:20 1018 30.06 847 25.01 4.5 40.2 69 -0.7 30.7
05:25 1018 30.06 847 25.01 4.3 39.8 70 -0.6 31
05:30 1018 30.06 847 25.01 4.1 39.4 72 -0.5 31.1
05:35 1018 30.06 847 25.01 4.3 39.7 73 -0.2 31.6
05:40 1018 30.06 848 25.04 4.5 40.1 72 -0.2 31.7
05:45 1018 30.06 848 25.04 4.4 40 73 0.1 32.2
05:50 1018 30.06 848 25.04 4.7 40.5 71 -0 31.9
05:55 1018 30.06 848 25.04 5.3 41.5 69 0 32.1
06:00 1019 30.09 848 25.04 5.4 41.8 66 -0.4 31.3
06:05 1019 30.09 848 25.04 5.2 41.3 67 -0.4 31.3
06:10 1019 30.09 848 25.04 4.9 40.9 68 -0.4 31.3
06:15 1019 30.09 848 25.04 4.8 40.7 69 -0.3 31.5
06:20 1019 30.09 848 25.04 5.1 41.1 68 -0.4 31.2
06:25 1019 30.09 848 25.04 5.5 41.8 67 -0.2 31.6
06:30 1019 30.09 848 25.04 5.9 42.6 65 -0.1 31.8
06:35 1019 30.09 848 25.04 6.2 43.1 64 -0 31.9
06:40 1019 30.09 848 25.04 6.6 43.9 63 0 32.1
06:45 1019 30.09 848 25.04 7 44.7 62 0.2 32.4
06:50 1019 30.09 848 25.04 7.2 44.9 61 0.2 32.4
06:55 1019 30.09 848 25.04 7.3 45.2 61 0.3 32.6
07:00 1019 30.09 848 25.04 7.6 45.6 60 0.4 32.6
07:05 1019 30.09 848 25.04 7.8 46.1 60 0.6 33.1
07:10 1019 30.09 848 25.04 8 46.4 60 0.7 33.3
07:15 1019 30.09 848 25.04 8.2 46.8 60 0.9 33.6
07:20 1019 30.09 848 25.04 9 48.3 57 0.9 33.6
07:25 1019 30.09 848 25.04 9.7 49.4 55 1 33.8
07:30 1019 30.09 848 25.04 10 50.1 53 1.1 33.9
07:35 1019 30.09 848 25.04 10.8 51.4 51 1 33.9
07:40 1019 30.09 848 25.04 11.2 52.2 49 1.1 33.9
07:45 1019 30.09 848 25.04 11.5 52.7 49 1.2 34.1
07:50 1019 30.09 848 25.04 11.8 53.2 47 0.8 33.4
07:55 1019 30.09 848 25.04 12.2 54 47 1.2 34.2
08:00 1019 30.09 848 25.04 12.1 53.8 46 0.9 33.7
08:05 1019 30.09 848 25.04 12.5 54.4 47 1.4 34.6
08:10 1019 30.09 848 25.04 11.7 53 47 0.8 33.4
08:15 1019 30.09 848 25.04 12.3 54.2 44 0.4 32.8
08:20 1019 30.09 848 25.04 13.1 55.5 41 0.2 32.4
08:25 1019 30.09 848 25.04 13.6 56.5 40 0.2 32.4
08:30 1019 30.09 848 25.04 13.7 56.7 39 0.2 32.3
08:35 1019 30.09 848 25.04 13.8 56.9 39 0.2 32.4
08:40 1019 30.09 848 25.04 14.2 57.5 38 0.3 32.6
08:45 1019 30.09 848 25.04 14 57.3 39 0.5 32.9
08:50 1019 30.09 848 25.04 14.3 57.8 38 0.3 32.5
08:55 1019 30.09 848 25.04 14.6 58.2 39 1 33.8
09:00 1019 30.09 848 25.04 13.6 56.4 40 0.4 32.7
09:05 1019 30.09 848 25.04 14.5 58.1 38 0.5 32.9
09:10 1019 30.09 849 25.07 14.4 58 38 0.4 32.8
09:15 1019 30.09 849 25.07 15 59 39 1.2 34.2
09:20 1019 30.09 849 25.07 14.8 58.6 40 1.3 34.4
09:25 1019 30.09 849 25.07 14.9 58.8 40 1.4 34.5
09:30 1019 30.09 849 25.07 15.3 59.6 38 1.1 33.9
09:35 1019 30.09 849 25.07 15.4 59.6 37 0.7 33.3
09:40 1020 30.12 849 25.07 15.2 59.3 40 1.7 35.1
09:45 1020 30.12 849 25.07 15.3 59.5 37 0.9 33.6
09:50 1019 30.09 849 25.07 16.1 61 36 1 33.9
09:55 1019 30.09 849 25.07 16.3 61.4 36 1.1 34.1
10:00 1019 30.09 849 25.07 16.3 61.3 33 -0 32
10:05 1019 30.09 849 25.07 16.4 61.5 34 0.5 32.9
10:10 1019 30.09 849 25.07 16.1 61 32 -0.3 31.4
10:15 1019 30.09 849 25.07 15.9 60.7 34 0.3 32.5
10:20 1019 30.09 849 25.07 17 62.5 31 -0.3 31.4
10:25 1019 30.09 849 25.07 16.8 62.3 30 -0.7 30.7
10:30 1019 30.09 849 25.07 16.8 62.2 28 -1.6 29.2
10:35 1019 30.09 849 25.07 16.5 61.7 28 -1.9 28.6
10:40 1019 30.09 849 25.07 17 62.7 28 -1.6 29.2
10:45 1019 30.09 849 25.07 17.2 62.9 29 -0.9 30.4
10:50 1019 30.09 849 25.07 17.6 63.7 28 -1.1 30.1
10:55 1019 30.09 849 25.07 17.3 63.2 28 -1.4 29.6
11:00 1019 30.09 849 25.07 17.3 63.1 28 -1.4 29.4
11:05 1019 30.09 849 25.07 16.9 62.4 28 -1.5 29.3
11:10 1019 30.09 849 25.07 17.3 63.1 29 -0.6 30.8
11:15 1019 30.09 849 25.07 17.6 63.6 28 -0.9 30.4
11:20 1019 30.09 849 25.07 17.6 63.7 27 -1.4 29.5
11:25 1019 30.09 849 25.07 18.1 64.6 28 -0.7 30.7
11:30 1019 30.09 849 25.07 18.2 64.7 28 -0.5 31.1
11:35 1019 30.09 849 25.07 18.6 65.4 26 -1.2 29.9
11:40 1019 30.09 848 25.04 18.8 65.8 27 -0.4 31.3
11:45 1019 30.09 848 25.04 18.3 64.9 26 -1.3 29.7
11:50 1019 30.09 848 25.04 18.3 64.9 26 -1.3 29.6
11:55 1019 30.09 848 25.04 18.9 66 25 -1.3 29.7
12:00 1019 30.09 848 25.04 19.1 66.4 26 -0.7 30.8
12:05 1019 30.09 848 25.04 20 68.1 24 -1.3 29.7
12:10 1019 30.09 848 25.04 19.8 67.6 24 -1.3 29.6
12:15 1019 30.09 848 25.04 19.9 67.7 24 -1.2 29.8
12:20 1019 30.09 848 25.04 19.7 67.5 25 -0.5 31.1
12:25 1019 30.09 848 25.04 19 66.1 26 -0.8 30.6
12:30 1019 30.09 848 25.04 19.7 67.5 25 -0.9 30.3
12:35 1019 30.09 848 25.04 19.8 67.7 24 -1.5 29.4
12:40 1019 30.09 848 25.04 19.9 67.7 25 -0.3 31.4
12:45 1019 30.09 848 25.04 19.7 67.5 24 -1.1 30
12:50 1019 30.09 848 25.04 20 68 25 -0.4 31.2
12:55 1019 30.09 848 25.04 20.1 68.1 24 -1.1 30
13:00 1019 30.09 848 25.04 20.6 69.1 24 -0.8 30.6
13:05 1019 30.09 848 25.04 20.5 68.8 24 -0.9 30.3
13:10 1019 30.09 848 25.04 20.5 68.9 22 -2 28.5
13:15 1019 30.09 848 25.04 20.6 69 22 -1.5 29.3
13:20 1019 30.09 848 25.04 20.4 68.7 23 -1.4 29.5
13:25 1019 30.09 848 25.04 20.8 69.5 23 -0.7 30.8
13:30 1019 30.09 848 25.04 20.7 69.3 22 -1.9 28.6
13:35 1019 30.09 848 25.04 21 69.8 22 -1.5 29.3
13:40 1019 30.09 848 25.04 21.2 70.1 21 -1.5 29.2
13:45 1019 30.09 848 25.04 21.4 70.5 21 -1.7 29
13:50 1019 30.09 848 25.04 21.1 70.1 20 -2.2 28
13:55 1019 30.09 848 25.04 21.8 71.2 21 -1.2 29.9
14:00 1019 30.09 848 25.04 21.8 71.2 20 -2.2 28
14:05 1019 30.09 848 25.04 20.2 68.4 24 -0.8 30.6
14:10 1019 30.09 848 25.04 20.5 68.9 21 -2.3 27.8
14:15 1019 30.09 848 25.04 20.2 68.4 23 -1.6 29.1
14:20 1019 30.09 848 25.04 20.9 69.6 22 -1.7 29
14:25 1019 30.09 848 25.04 21.3 70.3 22 -1.4 29.5
14:30 1019 30.09 848 25.04 20.9 69.6 21 -1.9 28.6
14:35 1019 30.09 848 25.04 21.2 70.2 21 -1.8 28.8
14:40 1019 30.09 848 25.04 21.6 70.8 20 -2 28.5
14:45 1019 30.09 848 25.04 21.7 71.1 21 -1.6 29.2
14:50 1019 30.09 848 25.04 22 71.7 20 -1.6 29
14:55 1019 30.09 848 25.04 21.4 70.6 22 -1.2 29.9
15:00 1019 30.09 848 25.04 21.9 71.5 20 -1.7 28.9
15:05 1019 30.09 848 25.04 21.7 71.1 20 -1.8 28.8
15:10 1019 30.09 848 25.04 22 71.6 21 -0.8 30.5
15:15 1019 30.09 848 25.04 21.9 71.3 22 -0.9 30.5
15:20 1019 30.09 848 25.04 22.1 71.7 22 -0.7 30.7
15:25 1019 30.09 848 25.04 22.5 72.5 20 -1.3 29.7
15:30 1019 30.09 848 25.04 22.5 72.4 21 -0.7 30.7
15:35 1019 30.09 848 25.04 22 71.7 21 -1 30.1
15:40 1019 30.09 848 25.04 22.2 72 22 -0.6 31
15:45 1019 30.09 848 25.04 22.1 71.7 21 -1 30.1
15:50 1019 30.09 848 25.04 21.5 70.8 22 -0.6 30.9
15:55 1019 30.09 848 25.04 20.8 69.5 22 -1.2 29.9
16:00 1019 30.09 848 25.04 21.4 70.4 21 -1.7 28.9
16:05 1019 30.09 848 25.04 22 71.6 21 -1.3 29.6
16:10 1019 30.09 848 25.04 21.6 71 23 -0.4 31.3
16:15 1019 30.09 848 25.04 20.8 69.4 23 -1.1 30
16:20 1019 30.09 848 25.04 20.8 69.4 23 -0.8 30.6
16:25 1019 30.09 848 25.04 21.2 70.1 22 -1.3 29.6
16:30 1018 30.06 848 25.04 22.1 71.8 21 -0.9 30.4
16:35 1018 30.06 848 25.04 22.2 71.9 21 -0.7 30.8
16:40 1018 30.06 848 25.04 21.6 70.8 23 -0.5 31.1
16:45 1018 30.06 848 25.04 21.4 70.5 23 -0.4 31.2
16:50 1018 30.06 848 25.04 21.2 70.1 22 -1.1 30.1
16:55 1019 30.09 848 25.04 21.2 70.1 22 -1.3 29.6
17:00 1018 30.06 848 25.04 20.7 69.2 23 -1.2 29.8
17:05 1019 30.09 848 25.04 20.6 69.1 22 -1.4 29.4
17:10 1019 30.09 848 25.04 20.6 69 22 -1.5 29.3
17:15 1018 30.06 848 25.04 20.6 69 22 -1.6 29.1
17:20 1018 30.06 848 25.04 20.5 68.9 22 -1.6 29.1
17:25 1018 30.06 848 25.04 20.4 68.7 22 -1.9 28.6
17:30 1019 30.09 848 25.04 20.2 68.4 21 -2.3 27.8
17:35 1019 30.09 848 25.04 20.1 68.2 22 -2 28.5
17:40 1019 30.09 848 25.04 20 68 23 -1.5 29.2
17:45 1019 30.09 848 25.04 19.9 67.9 22 -2.4 27.7
17:50 1019 30.09 848 25.04 19.8 67.6 22 -2.4 27.7
17:55 1019 30.09 848 25.04 19.7 67.4 22 -2.7 27.1
18:00 1019 30.09 848 25.04 19.5 67.1 22 -2.7 27.2
18:05 1019 30.09 848 25.04 19.5 67 22 -2.8 26.9
18:10 1019 30.09 848 25.04 19.3 66.7 22 -2.6 27.2
18:15 1019 30.09 848 25.04 19.2 66.6 22 -2.7 27.1
18:20 1019 30.09 848 25.04 19.1 66.4 23 -2.5 27.5
18:25 1019 30.09 848 25.04 19 66.2 22 -3.1 26.5
18:30 1019 30.09 848 25.04 18.9 66.1 22 -3 26.6
18:35 1019 30.09 848 25.04 18.8 65.8 22 -3.3 26
18:40 1019 30.09 848 25.04 18.7 65.6 23 -3 26.6
18:45 1019 30.09 848 25.04 18.5 65.4 23 -2.8 26.9
18:50 1019 30.09 848 25.04 18.4 65.2 24 -2.6 27.4
18:55 1019 30.09 848 25.04 18.3 64.9 24 -2.3 27.8
19:00 1019 30.09 848 25.04 18.1 64.6 24 -2.6 27.3
19:05 1019 30.09 848 25.04 18 64.4 25 -2.3 27.9
19:10 1019 30.09 848 25.04 17.8 64 25 -2.3 27.8
19:15 1019 30.09 848 25.04 17.6 63.7 26 -2.2 28
19:20 1019 30.09 848 25.04 17.5 63.4 26 -2.4 27.7
19:25 1019 30.09 848 25.04 17.3 63.1 27 -2 28.4
19:30 1019 30.09 848 25.04 17 62.5 27 -2.1 28.1
19:35 1019 30.09 848 25.04 16.9 62.5 26 -2.3 27.8
19:40 1019 30.09 848 25.04 16.9 62.3 27 -2.2 28
19:45 1019 30.09 848 25.04 16.8 62.2 27 -2.5 27.6
19:50 1019 30.09 848 25.04 16.8 62.2 26 -2.6 27.3
19:55 1019 30.09 849 25.07 16.7 62.1 26 -2.9 26.8
20:00 1019 30.09 849 25.07 16.7 62.1 26 -2.8 27
20:05 1019 30.09 849 25.07 16.9 62.5 25 -2.9 26.7
20:10 1020 30.12 849 25.07 16.9 62.4 25 -2.9 26.7
20:15 1020 30.12 849 25.07 16.7 62 26 -2.8 27
20:20 1020 30.12 849 25.07 16.4 61.6 27 -2.6 27.4
20:25 1020 30.12 849 25.07 16.4 61.6 27 -2.6 27.3
20:30 1020 30.12 849 25.07 16.3 61.3 27 -2.7 27.2
20:35 1020 30.12 849 25.07 16 60.8 28 -2.5 27.6
20:40 1020 30.12 849 25.07 15.7 60.3 28 -2.4 27.7
20:45 1020 30.12 849 25.07 15.5 60 29 -2.3 27.9
20:50 1020 30.12 849 25.07 15.4 59.7 30 -2.2 28.1
20:55 1020 30.12 849 25.07 15.3 59.6 30 -2.1 28.1
21:00 1020 30.12 849 25.07 15.3 59.5 30 -2 28.4
21:05 1020 30.12 849 25.07 15.1 59.1 31 -1.9 28.6
21:10 1020 30.12 849 25.07 14.9 58.8 31 -1.9 28.5
21:15 1020 30.12 850 25.1 14.9 58.7 31 -2.1 28.3
21:20 1020 30.12 850 25.1 15.1 59.2 31 -1.8 28.7
21:25 1020 30.12 850 25.1 14.8 58.7 32 -1.7 29
21:30 1020 30.12 850 25.1 14.7 58.5 32 -1.6 29.2
21:35 1020 30.12 850 25.1 14.5 58.1 33 -1.5 29.3
21:40 1021 30.15 850 25.1 14.4 58 34 -1.1 30
21:45 1021 30.15 850 25.1 14.4 58 34 -1.1 29.9
21:50 1021 30.15 850 25.1 14.2 57.6 35 -0.9 30.4
21:55 1020 30.12 850 25.1 14 57.3 37 -0.5 31.2
22:00 1020 30.12 850 25.1 13.8 56.9 38 -0.1 31.9
22:05 1020 30.12 850 25.1 13.5 56.3 40 0.4 32.7
22:10 1020 30.12 850 25.1 13.3 55.9 41 0.5 32.8
22:15 1020 30.12 850 25.1 13 55.5 43 0.7 33.2
22:20 1021 30.15 850 25.1 12.9 55.2 44 1 33.9
22:25 1021 30.15 850 25.1 12.8 55 46 1.4 34.6
22:30 1021 30.15 850 25.1 12.7 54.9 47 1.8 35.2
22:35 1021 30.15 850 25.1 12.7 54.8 48 2 35.7
22:40 1020 30.12 850 25.1 12.6 54.7 49 2.4 36.3
22:45 1020 30.12 850 25.1 12.6 54.7 50 2.5 36.6
22:50 1020 30.12 850 25.1 12.4 54.4 51 2.7 36.8
22:55 1020 30.12 850 25.1 12.4 54.3 51 2.7 36.9
23:00 1020 30.12 850 25.1 12.3 54.1 52 2.8 37.1
23:05 1020 30.12 850 25.1 12.1 53.8 53 2.9 37.3
23:10 1020 30.12 850 25.1 12 53.5 54 3 37.4
23:15 1020 30.12 850 25.1 11.8 53.3 55 3.1 37.6
23:20 1020 30.12 850 25.1 11.7 53.1 55 3.1 37.5
23:25 1020 30.12 850 25.1 11.7 53.1 55 3.1 37.5
23:30 1020 30.12 849 25.07 11.7 53 55 3.1 37.5
23:35 1020 30.12 849 25.07 11.6 52.9 55 3 37.4
23:40 1020 30.12 849 25.07 11.6 53 55 3 37.4
23:45 1020 30.12 849 25.07 11.6 52.9 56 3.1 37.6
23:50 1020 30.12 849 25.07 11.5 52.7 56 3 37.5
23:55 1020 30.12 849 25.07 11.6 52.8 55 2.9 37.2
24:00 1020 30.12 849 25.07 11.7 53 55 3 37.3